sensor_id;sensor_type;location;lat;lon;timestamp;pressure;altitude;pressure_sealevel;temperature;humidity
79136;BME280;68533;51.090;17.216;2023-05-02T00:00:47;99947.09;;;9.92;73.26
79136;BME280;68533;51.090;17.216;2023-05-02T00:03:15;99943.22;;;9.93;73.51
79136;BME280;68533;51.090;17.216;2023-05-02T00:05:41;99943.00;;;9.90;73.06
79136;BME280;68533;51.090;17.216;2023-05-02T00:08:08;99940.72;;;9.97;72.94
79136;BME280;68533;51.090;17.216;2023-05-02T00:10:34;99946.69;;;10.04;72.92
79136;BME280;68533;51.090;17.216;2023-05-02T00:13:00;99942.53;;;10.06;72.50
79136;BME280;68533;51.090;17.216;2023-05-02T00:15:25;99941.44;;;10.07;72.76
79136;BME280;68533;51.090;17.216;2023-05-02T00:17:55;99945.84;;;10.03;72.34
79136;BME280;68533;51.090;17.216;2023-05-02T00:20:21;99941.19;;;10.04;72.77
79136;BME280;68533;51.090;17.216;2023-05-02T00:22:47;99937.63;;;10.03;72.00
79136;BME280;68533;51.090;17.216;2023-05-02T00:25:13;99944.28;;;9.97;72.64
79136;BME280;68533;51.090;17.216;2023-05-02T00:27:44;99935.78;;;9.94;73.10
79136;BME280;68533;51.090;17.216;2023-05-02T00:30:11;99938.03;;;9.92;73.23
79136;BME280;68533;51.090;17.216;2023-05-02T00:32:38;99938.59;;;9.89;73.27
79136;BME280;68533;51.090;17.216;2023-05-02T00:35:04;99941.13;;;9.85;73.64
79136;BME280;68533;51.090;17.216;2023-05-02T00:37:30;99929.84;;;9.87;73.16
79136;BME280;68533;51.090;17.216;2023-05-02T00:39:57;99932.28;;;9.88;72.82
79136;BME280;68533;51.090;17.216;2023-05-02T00:42:23;99933.47;;;9.82;73.75
79136;BME280;68533;51.090;17.216;2023-05-02T00:44:49;99924.41;;;9.82;73.17
79136;BME280;68533;51.090;17.216;2023-05-02T00:47:15;99930.19;;;9.80;73.91
79136;BME280;68533;51.090;17.216;2023-05-02T00:49:43;99929.63;;;9.78;74.11
79136;BME280;68533;51.090;17.216;2023-05-02T00:52:09;99927.72;;;9.79;73.88
79136;BME280;68533;51.090;17.216;2023-05-02T00:54:38;99936.22;;;9.82;74.06
79136;BME280;68533;51.090;17.216;2023-05-02T00:57:05;99932.56;;;9.87;73.94
79136;BME280;68533;51.090;17.216;2023-05-02T00:59:34;99924.41;;;9.82;74.47
79136;BME280;68533;51.090;17.216;2023-05-02T01:02:10;99918.97;;;9.77;73.80
79136;BME280;68533;51.090;17.216;2023-05-02T01:15:37;99928.66;;;9.69;74.31
79136;BME280;68533;51.090;17.216;2023-05-02T01:18:05;99930.59;;;9.68;73.88
79136;BME280;68533;51.090;17.216;2023-05-02T01:20:35;99917.16;;;9.67;75.08
79136;BME280;68533;51.090;17.216;2023-05-02T01:23:12;99921.59;;;9.63;75.22
79136;BME280;68533;51.090;17.216;2023-05-02T01:26:16;99921.63;;;9.58;75.37
79136;BME280;68533;51.090;17.216;2023-05-02T01:28:57;99929.03;;;9.57;75.20
79136;BME280;68533;51.090;17.216;2023-05-02T01:31:36;99935.69;;;9.51;75.44
79136;BME280;68533;51.090;17.216;2023-05-02T01:34:04;99928.03;;;9.48;75.50
79136;BME280;68533;51.090;17.216;2023-05-02T01:36:33;99923.31;;;9.54;75.46
79136;BME280;68533;51.090;17.216;2023-05-02T01:39:01;99931.03;;;9.52;75.61
79136;BME280;68533;51.090;17.216;2023-05-02T01:41:29;99926.41;;;9.47;75.71
79136;BME280;68533;51.090;17.216;2023-05-02T01:43:58;99923.13;;;9.45;75.16
79136;BME280;68533;51.090;17.216;2023-05-02T01:46:26;99924.00;;;9.41;76.22
79136;BME280;68533;51.090;17.216;2023-05-02T01:48:55;99930.88;;;9.38;76.55
79136;BME280;68533;51.090;17.216;2023-05-02T01:51:26;99933.66;;;9.33;76.30
79136;BME280;68533;51.090;17.216;2023-05-02T01:53:58;99925.13;;;9.34;76.93
79136;BME280;68533;51.090;17.216;2023-05-02T01:56:26;99918.81;;;9.34;76.82
79136;BME280;68533;51.090;17.216;2023-05-02T01:58:55;99928.91;;;9.44;76.38
79136;BME280;68533;51.090;17.216;2023-05-02T02:01:23;99924.22;;;9.44;76.25
79136;BME280;68533;51.090;17.216;2023-05-02T02:03:57;99931.28;;;9.55;76.57
79136;BME280;68533;51.090;17.216;2023-05-02T02:06:25;99922.72;;;9.57;76.66
79136;BME280;68533;51.090;17.216;2023-05-02T02:08:52;99932.09;;;9.56;76.45
79136;BME280;68533;51.090;17.216;2023-05-02T02:11:59;99937.53;;;9.61;75.25
79136;BME280;68533;51.090;17.216;2023-05-02T02:14:33;99933.75;;;9.52;76.64
79136;BME280;68533;51.090;17.216;2023-05-02T02:17:01;99932.94;;;9.51;76.42
79136;BME280;68533;51.090;17.216;2023-05-02T02:19:31;99935.13;;;9.54;75.47
79136;BME280;68533;51.090;17.216;2023-05-02T02:21:58;99936.28;;;9.48;76.80
79136;BME280;68533;51.090;17.216;2023-05-02T02:24:25;99941.50;;;9.45;76.87
79136;BME280;68533;51.090;17.216;2023-05-02T02:26:52;99946.75;;;9.41;77.31
79136;BME280;68533;51.090;17.216;2023-05-02T02:29:18;99949.81;;;9.40;76.29
79136;BME280;68533;51.090;17.216;2023-05-02T02:31:44;99951.19;;;9.37;76.60
79136;BME280;68533;51.090;17.216;2023-05-02T02:34:10;99954.47;;;9.39;76.25
79136;BME280;68533;51.090;17.216;2023-05-02T02:50:50;99977.38;;;9.24;78.82
79136;BME280;68533;51.090;17.216;2023-05-02T02:53:25;99976.41;;;9.39;77.83
79136;BME280;68533;51.090;17.216;2023-05-02T02:55:56;99977.47;;;9.43;77.51
79136;BME280;68533;51.090;17.216;2023-05-02T03:01:10;99982.88;;;9.53;77.60
79136;BME280;68533;51.090;17.216;2023-05-02T03:03:40;99991.34;;;9.57;76.03
79136;BME280;68533;51.090;17.216;2023-05-02T03:06:08;99994.91;;;9.57;77.56
79136;BME280;68533;51.090;17.216;2023-05-02T03:08:38;99991.34;;;9.57;76.61
79136;BME280;68533;51.090;17.216;2023-05-02T03:11:05;99997.44;;;9.54;78.58
79136;BME280;68533;51.090;17.216;2023-05-02T03:13:31;99994.34;;;9.60;76.72
79136;BME280;68533;51.090;17.216;2023-05-02T03:16:28;99993.25;;;9.61;76.02
79136;BME280;68533;51.090;17.216;2023-05-02T03:18:55;100001.28;;;9.53;78.14
79136;BME280;68533;51.090;17.216;2023-05-02T03:21:22;100001.56;;;9.51;78.27
79136;BME280;68533;51.090;17.216;2023-05-02T03:23:48;100010.88;;;9.55;77.73
79136;BME280;68533;51.090;17.216;2023-05-02T03:26:14;100006.69;;;9.63;77.22
79136;BME280;68533;51.090;17.216;2023-05-02T03:28:41;100008.56;;;9.67;76.61
79136;BME280;68533;51.090;17.216;2023-05-02T03:31:08;100007.88;;;9.81;75.99
79136;BME280;68533;51.090;17.216;2023-05-02T03:33:34;100011.66;;;9.90;75.22
79136;BME280;68533;51.090;17.216;2023-05-02T03:36:10;100016.88;;;9.86;75.48
79136;BME280;68533;51.090;17.216;2023-05-02T03:38:36;100023.19;;;9.92;75.63
79136;BME280;68533;51.090;17.216;2023-05-02T03:41:03;100022.50;;;10.05;74.74
79136;BME280;68533;51.090;17.216;2023-05-02T03:43:30;100030.94;;;10.08;74.42
79136;BME280;68533;51.090;17.216;2023-05-02T03:45:56;100027.34;;;10.13;74.10
79136;BME280;68533;51.090;17.216;2023-05-02T03:48:23;100038.25;;;10.23;73.86
79136;BME280;68533;51.090;17.216;2023-05-02T03:50:53;100037.03;;;10.34;72.59
79136;BME280;68533;51.090;17.216;2023-05-02T03:53:19;100042.44;;;10.44;72.15
79136;BME280;68533;51.090;17.216;2023-05-02T03:55:45;100042.44;;;10.44;72.38
79136;BME280;68533;51.090;17.216;2023-05-02T03:58:12;100044.75;;;10.56;71.71
79136;BME280;68533;51.090;17.216;2023-05-02T04:00:40;100049.69;;;10.59;71.57
79136;BME280;68533;51.090;17.216;2023-05-02T04:03:06;100051.84;;;10.62;71.43
79136;BME280;68533;51.090;17.216;2023-05-02T04:05:35;100055.34;;;10.68;71.01
79136;BME280;68533;51.090;17.216;2023-05-02T04:08:01;100064.41;;;10.68;71.78
79136;BME280;68533;51.090;17.216;2023-05-02T04:10:29;100060.00;;;10.67;71.72
79136;BME280;68533;51.090;17.216;2023-05-02T04:12:55;100065.47;;;10.72;71.91
79136;BME280;68533;51.090;17.216;2023-05-02T04:15:21;100071.19;;;10.76;70.67
79136;BME280;68533;51.090;17.216;2023-05-02T04:17:48;100077.75;;;10.80;71.46
79136;BME280;68533;51.090;17.216;2023-05-02T04:20:15;100085.81;;;10.95;70.04
79136;BME280;68533;51.090;17.216;2023-05-02T04:22:41;100084.84;;;11.05;69.86
79136;BME280;68533;51.090;17.216;2023-05-02T04:25:07;100093.91;;;11.05;70.93
79136;BME280;68533;51.090;17.216;2023-05-02T04:27:33;100093.34;;;11.08;70.80
79136;BME280;68533;51.090;17.216;2023-05-02T04:30:00;100096.25;;;11.17;69.73
79136;BME280;68533;51.090;17.216;2023-05-02T04:32:26;100099.22;;;11.20;70.02
79136;BME280;68533;51.090;17.216;2023-05-02T04:34:55;100108.00;;;11.22;70.36
79136;BME280;68533;51.090;17.216;2023-05-02T04:37:21;100104.59;;;11.31;69.21
79136;BME280;68533;51.090;17.216;2023-05-02T04:39:48;100105.19;;;11.27;70.14
79136;BME280;68533;51.090;17.216;2023-05-02T04:42:17;100110.03;;;11.36;69.93
79136;BME280;68533;51.090;17.216;2023-05-02T04:44:43;100116.44;;;11.31;70.25
79136;BME280;68533;51.090;17.216;2023-05-02T04:47:11;100123.59;;;11.32;70.55
79136;BME280;68533;51.090;17.216;2023-05-02T04:49:38;100132.66;;;11.33;71.40
79136;BME280;68533;51.090;17.216;2023-05-02T04:52:03;100130.03;;;11.22;72.21
79136;BME280;68533;51.090;17.216;2023-05-02T04:54:32;100133.97;;;11.16;73.38
79136;BME280;68533;51.090;17.216;2023-05-02T04:56:58;100142.06;;;11.08;75.17
79136;BME280;68533;51.090;17.216;2023-05-02T04:59:27;100143.06;;;10.93;77.04
79136;BME280;68533;51.090;17.216;2023-05-02T05:01:53;100138.84;;;10.77;78.09
79136;BME280;68533;51.090;17.216;2023-05-02T05:04:19;100146.09;;;10.68;78.85
79136;BME280;68533;51.090;17.216;2023-05-02T05:06:45;100150.06;;;10.57;80.50
79136;BME280;68533;51.090;17.216;2023-05-02T05:09:13;100145.53;;;10.42;81.46
79136;BME280;68533;51.090;17.216;2023-05-02T05:11:41;100141.50;;;10.34;81.59
79136;BME280;68533;51.090;17.216;2023-05-02T05:14:11;100152.06;;;10.22;84.07
79136;BME280;68533;51.090;17.216;2023-05-02T05:16:37;100157.81;;;10.16;84.62
79136;BME280;68533;51.090;17.216;2023-05-02T05:19:03;100154.34;;;10.05;85.95
79136;BME280;68533;51.090;17.216;2023-05-02T05:21:31;100158.75;;;10.01;87.48
79136;BME280;68533;51.090;17.216;2023-05-02T05:23:58;100164.25;;;10.01;87.07
79136;BME280;68533;51.090;17.216;2023-05-02T05:26:25;100163.97;;;10.02;86.38
79136;BME280;68533;51.090;17.216;2023-05-02T05:28:52;100161.22;;;10.02;88.45
79136;BME280;68533;51.090;17.216;2023-05-02T05:31:18;100176.91;;;10.02;88.12
79136;BME280;68533;51.090;17.216;2023-05-02T05:33:45;100179.91;;;10.00;88.59
79136;BME280;68533;51.090;17.216;2023-05-02T05:36:12;100178.25;;;10.04;87.84
79136;BME280;68533;51.090;17.216;2023-05-02T05:38:42;100176.34;;;10.05;89.29
79136;BME280;68533;51.090;17.216;2023-05-02T05:41:11;100182.59;;;10.10;88.43
79136;BME280;68533;51.090;17.216;2023-05-02T05:43:39;100181.75;;;10.20;87.66
79136;BME280;68533;51.090;17.216;2023-05-02T05:46:05;100188.88;;;10.21;89.01
79136;BME280;68533;51.090;17.216;2023-05-02T05:48:32;100186.38;;;10.25;88.88
79136;BME280;68533;51.090;17.216;2023-05-02T05:51:03;100187.13;;;10.30;88.05
79136;BME280;68533;51.090;17.216;2023-05-02T05:53:30;100199.25;;;10.29;88.57
79136;BME280;68533;51.090;17.216;2023-05-02T05:55:56;100199.34;;;10.19;89.49
79136;BME280;68533;51.090;17.216;2023-05-02T05:58:22;100200.19;;;10.15;89.55
79136;BME280;68533;51.090;17.216;2023-05-02T06:00:50;100198.22;;;10.20;89.76
79136;BME280;68533;51.090;17.216;2023-05-02T06:03:16;100207.03;;;10.17;90.03
79136;BME280;68533;51.090;17.216;2023-05-02T06:05:42;100208.13;;;10.21;90.06
79136;BME280;68533;51.090;17.216;2023-05-02T06:08:09;100213.00;;;10.29;89.91
79136;BME280;68533;51.090;17.216;2023-05-02T06:10:38;100211.59;;;10.32;90.43
79136;BME280;68533;51.090;17.216;2023-05-02T06:13:07;100210.41;;;10.43;89.93
79136;BME280;68533;51.090;17.216;2023-05-02T06:15:33;100221.56;;;10.57;89.97
79136;BME280;68533;51.090;17.216;2023-05-02T06:18:02;100222.59;;;10.61;89.71
79136;BME280;68533;51.090;17.216;2023-05-02T06:20:28;100228.28;;;10.74;90.38
79136;BME280;68533;51.090;17.216;2023-05-02T06:22:54;100229.25;;;10.83;88.76
79136;BME280;68533;51.090;17.216;2023-05-02T06:25:22;100223.47;;;10.85;88.84
79136;BME280;68533;51.090;17.216;2023-05-02T06:27:48;100228.75;;;11.05;86.87
79136;BME280;68533;51.090;17.216;2023-05-02T06:30:14;100229.22;;;11.12;85.70
79136;BME280;68533;51.090;17.216;2023-05-02T06:32:40;100238.56;;;11.16;86.09
79136;BME280;68533;51.090;17.216;2023-05-02T06:35:09;100239.56;;;11.25;86.08
79136;BME280;68533;51.090;17.216;2023-05-02T06:37:37;100242.25;;;11.31;85.33
79136;BME280;68533;51.090;17.216;2023-05-02T06:40:03;100244.13;;;11.11;84.93
79136;BME280;68533;51.090;17.216;2023-05-02T06:42:32;100252.38;;;11.11;85.72
79136;BME280;68533;51.090;17.216;2023-05-02T06:44:58;100252.41;;;11.06;85.67
79136;BME280;68533;51.090;17.216;2023-05-02T06:47:24;100258.19;;;11.05;85.65
79136;BME280;68533;51.090;17.216;2023-05-02T06:49:51;100258.44;;;11.08;84.76
79136;BME280;68533;51.090;17.216;2023-05-02T06:52:18;100266.34;;;11.15;85.82
79136;BME280;68533;51.090;17.216;2023-05-02T06:54:46;100264.44;;;11.15;86.24
79136;BME280;68533;51.090;17.216;2023-05-02T06:57:13;100268.69;;;11.26;86.37
79136;BME280;68533;51.090;17.216;2023-05-02T06:59:38;100271.97;;;11.28;85.66
79136;BME280;68533;51.090;17.216;2023-05-02T07:02:05;100270.53;;;11.36;85.09
79136;BME280;68533;51.090;17.216;2023-05-02T07:04:31;100283.47;;;11.36;86.12
79136;BME280;68533;51.090;17.216;2023-05-02T07:06:57;100278.50;;;11.61;83.84
79136;BME280;68533;51.090;17.216;2023-05-02T07:09:26;100281.91;;;11.72;83.91
79136;BME280;68533;51.090;17.216;2023-05-02T07:11:52;100286.59;;;11.72;82.79
79136;BME280;68533;51.090;17.216;2023-05-02T07:14:18;100285.69;;;11.81;82.99
79136;BME280;68533;51.090;17.216;2023-05-02T07:16:44;100287.25;;;11.63;84.13
79136;BME280;68533;51.090;17.216;2023-05-02T07:19:12;100287.50;;;11.67;84.18
79136;BME280;68533;51.090;17.216;2023-05-02T07:21:38;100298.56;;;11.86;84.12
79136;BME280;68533;51.090;17.216;2023-05-02T07:24:04;100302.31;;;11.71;82.89
79136;BME280;68533;51.090;17.216;2023-05-02T07:26:30;100300.91;;;11.74;82.81
79136;BME280;68533;51.090;17.216;2023-05-02T07:28:59;100300.81;;;11.84;81.55
79136;BME280;68533;51.090;17.216;2023-05-02T07:31:25;100305.16;;;11.90;83.61
79136;BME280;68533;51.090;17.216;2023-05-02T07:33:51;100303.47;;;12.13;82.24
79136;BME280;68533;51.090;17.216;2023-05-02T07:36:17;100305.16;;;12.09;81.28
79136;BME280;68533;51.090;17.216;2023-05-02T07:38:43;100307.69;;;12.24;81.63
79136;BME280;68533;51.090;17.216;2023-05-02T07:41:12;100310.22;;;12.39;81.42
79136;BME280;68533;51.090;17.216;2023-05-02T07:43:41;100318.88;;;12.32;81.36
79136;BME280;68533;51.090;17.216;2023-05-02T07:46:07;100317.16;;;12.55;81.48
79136;BME280;68533;51.090;17.216;2023-05-02T07:48:33;100325.56;;;12.64;79.20
79136;BME280;68533;51.090;17.216;2023-05-02T07:51:09;100324.50;;;12.78;80.03
79136;BME280;68533;51.090;17.216;2023-05-02T07:53:35;100333.56;;;12.98;79.79
79136;BME280;68533;51.090;17.216;2023-05-02T07:56:05;100329.56;;;12.90;80.06
79136;BME280;68533;51.090;17.216;2023-05-02T07:58:31;100341.16;;;13.06;79.81
79136;BME280;68533;51.090;17.216;2023-05-02T08:00:57;100337.47;;;13.29;80.06
79136;BME280;68533;51.090;17.216;2023-05-02T08:03:23;100342.00;;;13.52;77.96
79136;BME280;68533;51.090;17.216;2023-05-02T08:05:52;100336.59;;;13.47;77.43
79136;BME280;68533;51.090;17.216;2023-05-02T08:08:22;100336.16;;;13.95;75.82
79136;BME280;68533;51.090;17.216;2023-05-02T08:10:51;100341.94;;;14.34;75.19
79136;BME280;68533;51.090;17.216;2023-05-02T08:13:17;100351.66;;;14.32;74.26
79136;BME280;68533;51.090;17.216;2023-05-02T08:15:48;100342.66;;;14.26;73.18
79136;BME280;68533;51.090;17.216;2023-05-02T08:18:14;100357.75;;;14.07;75.30
79136;BME280;68533;51.090;17.216;2023-05-02T08:20:42;100344.88;;;13.88;75.64
79136;BME280;68533;51.090;17.216;2023-05-02T08:23:08;100341.38;;;13.96;74.65
79136;BME280;68533;51.090;17.216;2023-05-02T08:25:37;100350.28;;;13.93;75.08
79136;BME280;68533;51.090;17.216;2023-05-02T08:28:03;100347.44;;;13.98;72.89
79136;BME280;68533;51.090;17.216;2023-05-02T08:30:30;100350.28;;;13.80;74.15
79136;BME280;68533;51.090;17.216;2023-05-02T08:32:57;100349.28;;;13.62;73.86
79136;BME280;68533;51.090;17.216;2023-05-02T08:35:23;100354.19;;;13.79;74.28
79136;BME280;68533;51.090;17.216;2023-05-02T08:37:49;100362.09;;;13.85;73.03
79136;BME280;68533;51.090;17.216;2023-05-02T08:40:16;100362.88;;;13.86;73.76
79136;BME280;68533;51.090;17.216;2023-05-02T08:42:45;100357.66;;;14.12;73.02
79136;BME280;68533;51.090;17.216;2023-05-02T08:45:13;100362.78;;;13.91;72.16
79136;BME280;68533;51.090;17.216;2023-05-02T08:47:46;100360.44;;;13.98;73.74
79136;BME280;68533;51.090;17.216;2023-05-02T08:50:16;100360.19;;;14.35;72.76
79136;BME280;68533;51.090;17.216;2023-05-02T08:52:45;100373.28;;;14.57;72.28
79136;BME280;68533;51.090;17.216;2023-05-02T08:55:13;100372.31;;;14.62;73.75
79136;BME280;68533;51.090;17.216;2023-05-02T08:57:42;100373.91;;;14.27;72.86
79136;BME280;68533;51.090;17.216;2023-05-02T09:00:09;100370.63;;;14.52;72.85
79136;BME280;68533;51.090;17.216;2023-05-02T09:05:23;100378.88;;;14.66;72.22
79136;BME280;68533;51.090;17.216;2023-05-02T09:07:50;100385.13;;;14.94;72.36
79136;BME280;68533;51.090;17.216;2023-05-02T09:10:17;100390.28;;;14.87;72.38
79136;BME280;68533;51.090;17.216;2023-05-02T09:12:42;100393.63;;;14.97;71.09
79136;BME280;68533;51.090;17.216;2023-05-02T09:15:15;100400.31;;;14.60;73.68
79136;BME280;68533;51.090;17.216;2023-05-02T09:17:43;100393.94;;;14.96;71.28
79136;BME280;68533;51.090;17.216;2023-05-02T09:20:14;100399.22;;;14.84;71.32
79136;BME280;68533;51.090;17.216;2023-05-02T09:22:49;100403.38;;;14.95;71.19
79136;BME280;68533;51.090;17.216;2023-05-02T09:25:18;100403.25;;;15.22;70.78
79136;BME280;68533;51.090;17.216;2023-05-02T09:27:56;100396.16;;;15.07;70.08
79136;BME280;68533;51.090;17.216;2023-05-02T09:30:27;100401.81;;;15.02;69.31
79136;BME280;68533;51.090;17.216;2023-05-02T09:32:53;100410.38;;;15.14;69.30
79136;BME280;68533;51.090;17.216;2023-05-02T09:35:22;100410.50;;;15.32;69.49
79136;BME280;68533;51.090;17.216;2023-05-02T09:37:56;100414.28;;;15.13;68.62
79136;BME280;68533;51.090;17.216;2023-05-02T09:40:24;100410.06;;;14.94;69.50
79136;BME280;68533;51.090;17.216;2023-05-02T09:42:55;100425.94;;;15.24;68.91
79136;BME280;68533;51.090;17.216;2023-05-02T09:45:25;100424.13;;;15.73;68.00
79136;BME280;68533;51.090;17.216;2023-05-02T09:47:52;100428.63;;;15.91;67.19
79136;BME280;68533;51.090;17.216;2023-05-02T09:50:35;100431.91;;;16.41;67.19
79136;BME280;68533;51.090;17.216;2023-05-02T09:53:06;100433.16;;;16.75;67.04
79136;BME280;68533;51.090;17.216;2023-05-02T09:55:33;100432.44;;;16.52;66.07
79136;BME280;68533;51.090;17.216;2023-05-02T09:58:00;100437.72;;;16.88;64.99
79136;BME280;68533;51.090;17.216;2023-05-02T10:00:42;100434.28;;;16.91;64.40
79136;BME280;68533;51.090;17.216;2023-05-02T10:03:09;100437.56;;;17.10;61.84
79136;BME280;68533;51.090;17.216;2023-05-02T10:05:37;100443.31;;;16.96;61.93
79136;BME280;68533;51.090;17.216;2023-05-02T10:08:05;100432.03;;;17.10;61.36
79136;BME280;68533;51.090;17.216;2023-05-02T10:10:38;100437.56;;;17.10;60.69
79136;BME280;68533;51.090;17.216;2023-05-02T10:13:07;100433.16;;;17.99;59.40
79136;BME280;68533;51.090;17.216;2023-05-02T10:15:37;100440.31;;;17.70;59.08
79136;BME280;68533;51.090;17.216;2023-05-02T10:18:14;100442.13;;;17.06;59.45
79136;BME280;68533;51.090;17.216;2023-05-02T10:20:47;100443.91;;;17.19;60.00
79136;BME280;68533;51.090;17.216;2023-05-02T10:23:19;100441.97;;;17.37;59.11
79136;BME280;68533;51.090;17.216;2023-05-02T10:25:46;100443.84;;;17.79;58.10
79136;BME280;68533;51.090;17.216;2023-05-02T10:28:13;100443.28;;;18.03;56.20
79136;BME280;68533;51.090;17.216;2023-05-02T10:30:40;100442.91;;;17.58;59.15
79136;BME280;68533;51.090;17.216;2023-05-02T10:33:09;100444.22;;;17.52;59.19
79136;BME280;68533;51.090;17.216;2023-05-02T10:35:44;100446.38;;;17.12;60.07
79136;BME280;68533;51.090;17.216;2023-05-02T10:38:14;100447.03;;;17.35;60.08
79136;BME280;68533;51.090;17.216;2023-05-02T10:40:42;100445.41;;;18.06;56.10
79136;BME280;68533;51.090;17.216;2023-05-02T10:43:16;100444.47;;;17.94;58.24
79136;BME280;68533;51.090;17.216;2023-05-02T10:45:42;100452.25;;;17.28;60.82
79136;BME280;68533;51.090;17.216;2023-05-02T10:48:17;100445.88;;;17.44;57.19
79136;BME280;68533;51.090;17.216;2023-05-02T10:50:45;100456.69;;;17.20;57.14
79136;BME280;68533;51.090;17.216;2023-05-02T10:53:29;100460.41;;;17.41;58.57
79136;BME280;68533;51.090;17.216;2023-05-02T10:58:37;100451.94;;;17.46;56.91
79136;BME280;68533;51.090;17.216;2023-05-02T11:03:59;100451.09;;;17.46;56.56
79136;BME280;68533;51.090;17.216;2023-05-02T11:06:27;100452.56;;;17.61;54.82
79136;BME280;68533;51.090;17.216;2023-05-02T11:11:50;100456.69;;;17.20;57.53
79136;BME280;68533;51.090;17.216;2023-05-02T11:24:46;100463.03;;;17.55;53.74
79136;BME280;68533;51.090;17.216;2023-05-02T11:27:40;100469.09;;;17.40;51.48
79136;BME280;68533;51.090;17.216;2023-05-02T11:30:09;100470.88;;;17.44;48.12
79136;BME280;68533;51.090;17.216;2023-05-02T11:40:23;100477.28;;;17.71;46.82
79136;BME280;68533;51.090;17.216;2023-05-02T11:42:50;100480.53;;;17.56;45.91
79136;BME280;68533;51.090;17.216;2023-05-02T11:45:16;100483.66;;;17.54;46.21
79136;BME280;68533;51.090;17.216;2023-05-02T11:47:43;100487.72;;;17.65;45.36
79136;BME280;68533;51.090;17.216;2023-05-02T11:50:13;100484.81;;;17.70;43.59
79136;BME280;68533;51.090;17.216;2023-05-02T11:52:42;100486.25;;;17.85;46.41
79136;BME280;68533;51.090;17.216;2023-05-02T11:55:12;100482.66;;;17.76;46.04
79136;BME280;68533;51.090;17.216;2023-05-02T11:57:40;100495.19;;;18.08;46.37
79136;BME280;68533;51.090;17.216;2023-05-02T12:00:10;100490.78;;;17.98;44.12
79136;BME280;68533;51.090;17.216;2023-05-02T12:02:40;100495.31;;;18.11;43.89
79136;BME280;68533;51.090;17.216;2023-05-02T12:05:08;100484.28;;;18.23;44.04
79136;BME280;68533;51.090;17.216;2023-05-02T12:07:38;100487.25;;;18.65;42.94
79136;BME280;68533;51.090;17.216;2023-05-02T12:10:06;100492.38;;;19.05;40.36
79136;BME280;68533;51.090;17.216;2023-05-02T12:12:33;100478.47;;;18.75;40.98
79136;BME280;68533;51.090;17.216;2023-05-02T12:15:07;100479.56;;;18.83;38.72
79136;BME280;68533;51.090;17.216;2023-05-02T12:17:37;100475.13;;;19.32;41.31
79136;BME280;68533;51.090;17.216;2023-05-02T12:20:06;100479.41;;;18.88;39.78
79136;BME280;68533;51.090;17.216;2023-05-02T12:22:33;100481.16;;;18.92;39.63
79136;BME280;68533;51.090;17.216;2023-05-02T12:24:59;100472.50;;;19.27;40.10
79136;BME280;68533;51.090;17.216;2023-05-02T12:27:25;100472.34;;;19.65;37.95
79136;BME280;68533;51.090;17.216;2023-05-02T12:29:52;100481.84;;;19.10;39.22
79136;BME280;68533;51.090;17.216;2023-05-02T12:32:28;100477.91;;;19.32;40.55
79136;BME280;68533;51.090;17.216;2023-05-02T12:34:54;100480.63;;;19.41;39.43
79136;BME280;68533;51.090;17.216;2023-05-02T12:37:23;100489.84;;;18.91;40.92
79136;BME280;68533;51.090;17.216;2023-05-02T12:39:55;100495.50;;;19.24;41.06
79136;BME280;68533;51.090;17.216;2023-05-02T12:42:23;100502.47;;;19.18;39.63
79136;BME280;68533;51.090;17.216;2023-05-02T12:44:50;100494.75;;;19.56;39.20
79136;BME280;68533;51.090;17.216;2023-05-02T12:47:17;100497.06;;;19.13;40.50
79136;BME280;68533;51.090;17.216;2023-05-02T12:49:48;100501.28;;;18.98;40.22
79136;BME280;68533;51.090;17.216;2023-05-02T12:52:16;100505.41;;;18.92;40.39
79136;BME280;68533;51.090;17.216;2023-05-02T12:54:44;100517.03;;;18.94;41.92
79136;BME280;68533;51.090;17.216;2023-05-02T12:57:23;100523.66;;;19.10;42.17
79136;BME280;68533;51.090;17.216;2023-05-02T12:59:51;100534.84;;;17.53;47.22
79136;BME280;68533;51.090;17.216;2023-05-02T13:02:20;100548.97;;;16.74;50.37
79136;BME280;68533;51.090;17.216;2023-05-02T13:04:46;100555.03;;;16.14;53.90
79136;BME280;68533;51.090;17.216;2023-05-02T13:07:13;100552.69;;;15.41;56.34
79136;BME280;68533;51.090;17.216;2023-05-02T13:09:40;100556.22;;;15.33;57.21
79136;BME280;68533;51.090;17.216;2023-05-02T13:12:08;100564.41;;;14.88;58.81
79136;BME280;68533;51.090;17.216;2023-05-02T13:14:34;100557.03;;;14.43;61.15
79136;BME280;68533;51.090;17.216;2023-05-02T13:17:00;100560.09;;;14.09;62.96
79136;BME280;68533;51.090;17.216;2023-05-02T13:19:26;100564.16;;;13.84;64.77
79136;BME280;68533;51.090;17.216;2023-05-02T13:21:56;100566.00;;;13.37;66.99
79136;BME280;68533;51.090;17.216;2023-05-02T13:24:22;100565.69;;;13.20;68.27
79136;BME280;68533;51.090;17.216;2023-05-02T13:26:49;100556.75;;;13.28;68.95
79136;BME280;68533;51.090;17.216;2023-05-02T13:29:16;100552.88;;;13.29;68.61
79136;BME280;68533;51.090;17.216;2023-05-02T13:31:42;100547.16;;;13.58;66.73
79136;BME280;68533;51.090;17.216;2023-05-02T13:34:09;100549.19;;;13.52;66.73
79136;BME280;68533;51.090;17.216;2023-05-02T13:36:40;100548.50;;;13.60;66.08
79136;BME280;68533;51.090;17.216;2023-05-02T13:39:10;100546.53;;;13.80;66.10
79136;BME280;68533;51.090;17.216;2023-05-02T13:41:44;100544.44;;;13.72;64.51
79136;BME280;68533;51.090;17.216;2023-05-02T13:44:10;100543.84;;;14.07;63.61
79136;BME280;68533;51.090;17.216;2023-05-02T13:46:36;100532.50;;;14.22;61.92
79136;BME280;68533;51.090;17.216;2023-05-02T13:49:04;100537.97;;;14.41;61.37